Terminal Aerodrome Forecast
Issued by NWS

Home | Current Version | Previous Version | Text Only | Print | Product List | Glossary On
Versions: 1 2 3 4 5 6 7 8 9 10 11 12 13 14 15 16 17
000
FTUS43 KICT 300713 AAA
TAFCNU
TAF AMD
KCNU 300713Z 3007/0106 13010KT P6SM VCSH BKN008 OVC012
     FM301000 20007KT 5SM BR OVC007
     FM301600 24013KT P6SM SCT025
     FM302100 23014KT P6SM SCT110
     FM010300 26009KT P6SM SCT250=

USA.gov is the U.S. government's official web portal to all federal, state and local government web resources and services.